Time;durP1;ratioP1;P1;durP2;ratioP2;P2;SDS_P1;SDS_P2;PMS_P1;PMS_P2;Temp;Humidity;BMP_temperature;BMP_pressure;BME280_temperature;BME280_humidity;BME280_pressure;Samples;Min_cycle;Max_cycle;Signal;HPM_P1;HPM_P2
2024/03/30 00:01:31;;;;;;;13.77;5.30;;;8.40;99.90;;;;;;5022403;28;20030;-79
2024/03/30 00:03:57;;;;;;;9.98;5.32;;;8.50;99.90;;;;;;5026994;28;20120;-78
2024/03/30 00:06:23;;;;;;;15.73;4.82;;;8.50;99.90;;;;;;5016583;28;20033;-79
2024/03/30 00:08:48;;;;;;;7.90;4.00;;;8.50;99.90;;;;;;5021871;28;20147;-79
2024/03/30 00:11:14;;;;;;;15.70;4.90;;;8.50;99.90;;;;;;5017390;28;20853;-79
2024/03/30 00:13:40;;;;;;;10.95;4.85;;;8.60;99.90;;;;;;5016496;28;20038;-79
2024/03/30 00:16:10;;;;;;;12.98;5.55;;;8.50;99.90;;;;;;5015824;28;20048;-79
2024/03/30 00:18:36;;;;;;;11.35;5.60;;;8.60;99.90;;;;;;5030972;28;20037;-79
2024/03/30 00:21:04;;;;;;;10.57;5.88;;;8.50;99.90;;;;;;5016357;28;20080;-78
2024/03/30 00:23:31;;;;;;;11.40;4.97;;;8.40;99.90;;;;;;5016218;28;20045;-81
2024/03/30 00:25:57;;;;;;;10.10;4.60;;;8.40;99.90;;;;;;5017237;28;20541;-79
2024/03/30 00:28:24;;;;;;;10.60;5.35;;;8.40;99.90;;;;;;5016038;28;20049;-78
2024/03/30 00:30:50;;;;;;;12.43;5.18;;;8.40;99.90;;;;;;5016770;28;20068;-79
2024/03/30 00:33:16;;;;;;;10.82;4.65;;;8.40;99.90;;;;;;5018776;28;20716;-79
2024/03/30 00:35:44;;;;;;;10.65;4.78;;;8.50;99.90;;;;;;5017300;28;20430;-79
2024/03/30 00:38:09;;;;;;;10.10;4.82;;;8.50;99.90;;;;;;5016851;28;20500;-79
2024/03/30 00:40:36;;;;;;;9.38;4.32;;;8.50;99.90;;;;;;5016788;28;20070;-79
2024/03/30 00:43:03;;;;;;;14.95;4.85;;;8.50;99.90;;;;;;5015915;28;20105;-79
2024/03/30 00:45:29;;;;;;;14.00;4.60;;;8.50;99.90;;;;;;5023685;28;20060;-79
2024/03/30 00:47:55;;;;;;;10.05;4.30;;;8.50;99.90;;;;;;5035469;28;20045;-78
2024/03/30 00:50:21;;;;;;;13.18;4.70;;;8.40;99.90;;;;;;5023093;28;20119;-78
2024/03/30 00:52:46;;;;;;;15.75;5.25;;;8.40;99.90;;;;;;5016891;28;20036;-79
2024/03/30 00:55:12;;;;;;;10.95;4.82;;;8.40;99.90;;;;;;5014887;28;20061;-80
2024/03/30 00:57:41;;;;;;;14.05;4.70;;;8.40;99.90;;;;;;5018823;28;20164;-80
2024/03/30 01:00:13;;;;;;;11.40;5.10;;;8.40;99.90;;;;;;5019046;28;20030;-80
2024/03/30 01:02:39;;;;;;;13.20;4.63;;;8.40;99.90;;;;;;5018138;28;20036;-80
2024/03/30 01:05:05;;;;;;;11.63;5.32;;;8.50;99.90;;;;;;5018917;28;20353;-80
2024/03/30 01:07:31;;;;;;;14.35;4.18;;;8.50;99.90;;;;;;5019317;28;20039;-80
2024/03/30 01:09:57;;;;;;;9.73;4.05;;;8.50;99.90;;;;;;5018741;28;20034;-80
2024/03/30 01:12:24;;;;;;;10.13;4.30;;;8.40;99.90;;;;;;5018247;28;21058;-80
2024/03/30 01:14:51;;;;;;;13.15;4.13;;;8.40;99.90;;;;;;5018863;28;20032;-79
2024/03/30 01:17:17;;;;;;;9.32;4.38;;;8.30;99.90;;;;;;5019397;28;20676;-80
2024/03/30 01:19:43;;;;;;;11.13;4.07;;;8.20;99.90;;;;;;5020141;28;20455;-80
2024/03/30 01:22:09;;;;;;;16.55;4.78;;;8.30;99.90;;;;;;5019512;28;20034;-79
2024/03/30 01:24:35;;;;;;;10.48;4.00;;;8.40;99.90;;;;;;5019889;28;20037;-80
2024/03/30 01:27:09;;;;;;;13.23;5.05;;;8.40;99.90;;;;;;5025906;28;20037;-80
2024/03/30 01:29:35;;;;;;;10.73;4.30;;;8.30;99.90;;;;;;5020549;28;20025;-80
2024/03/30 01:32:02;;;;;;;9.70;4.05;;;8.30;99.90;;;;;;5030272;28;20762;-80
2024/03/30 01:34:29;;;;;;;11.10;4.03;;;8.30;99.90;;;;;;5019536;28;20029;-79
2024/03/30 01:36:55;;;;;;;9.13;4.03;;;8.40;99.90;;;;;;5017855;28;20077;-79
2024/03/30 01:39:21;;;;;;;9.98;4.00;;;8.40;99.90;;;;;;5019263;28;20068;-80
2024/03/30 01:41:46;;;;;;;9.30;3.63;;;8.50;99.90;;;;;;5018097;28;20033;-80
2024/03/30 01:44:12;;;;;;;10.15;4.05;;;8.40;99.90;;;;;;5018870;28;20025;-80
2024/03/30 01:46:39;;;;;;;10.25;4.47;;;8.30;99.90;;;;;;4978991;28;1155256;-80
2024/03/30 01:49:06;;;;;;;12.52;5.13;;;8.30;99.90;;;;;;5020111;28;21322;-80
2024/03/30 01:51:32;;;;;;;15.00;5.35;;;8.30;99.90;;;;;;5019896;28;20029;-80
2024/03/30 01:54:01;;;;;;;11.90;4.93;;;8.30;99.90;;;;;;5019007;28;20060;-79
2024/03/30 01:56:28;;;;;;;13.10;4.93;;;8.30;99.90;;;;;;5018844;28;20050;-80
2024/03/30 01:58:54;;;;;;;13.00;4.88;;;8.30;99.90;;;;;;5021436;28;20164;-80
2024/03/30 02:01:22;;;;;;;14.38;4.63;;;8.30;99.90;;;;;;5019261;28;20789;-80
2024/03/30 02:03:51;;;;;;;12.15;5.65;;;8.20;99.90;;;;;;5019455;28;20113;-79
2024/03/30 02:06:16;;;;;;;10.00;4.85;;;8.20;99.90;;;;;;5019239;28;20564;-79
2024/03/30 02:08:44;;;;;;;11.05;4.40;;;8.30;99.90;;;;;;5018869;28;20029;-79
2024/03/30 02:11:10;;;;;;;12.15;5.30;;;8.30;99.90;;;;;;5018162;28;20044;-79
2024/03/30 02:13:36;;;;;;;18.00;5.65;;;8.40;99.90;;;;;;5017510;28;20108;-79
2024/03/30 02:16:01;;;;;;;18.20;5.25;;;8.40;99.90;;;;;;5019681;28;20049;-79
2024/03/30 02:18:27;;;;;;;10.15;4.63;;;8.40;99.90;;;;;;5018754;28;20067;-79
2024/03/30 02:20:53;;;;;;;10.60;4.88;;;8.40;99.90;;;;;;5020551;28;20396;-79
2024/03/30 02:23:18;;;;;;;13.15;4.75;;;8.50;99.90;;;;;;5019916;28;20025;-79
2024/03/30 02:25:44;;;;;;;12.75;4.85;;;8.50;99.90;;;;;;5019385;28;20376;-79
2024/03/30 02:28:11;;;;;;;14.57;4.93;;;8.40;99.90;;;;;;5017258;28;20067;-79
2024/03/30 02:30:38;;;;;;;17.17;4.78;;;8.30;99.90;;;;;;5020087;28;20043;-79
2024/03/30 02:33:04;;;;;;;10.63;4.72;;;8.30;99.90;;;;;;5019269;28;20059;-79
2024/03/30 02:35:31;;;;;;;14.40;4.95;;;8.30;99.90;;;;;;5019961;28;20037;-80
2024/03/30 02:37:57;;;;;;;13.90;5.25;;;8.20;99.90;;;;;;5019850;28;20064;-80
2024/03/30 02:40:22;;;;;;;9.98;4.72;;;8.10;99.90;;;;;;5018946;28;20033;-80
2024/03/30 02:42:49;;;;;;;10.93;4.95;;;8.10;99.90;;;;;;5016742;28;20064;-80
2024/03/30 02:45:15;;;;;;;15.20;6.28;;;8.20;99.90;;;;;;5019499;28;20045;-80
2024/03/30 02:47:41;;;;;;;14.55;5.07;;;8.20;99.90;;;;;;5018935;28;20040;-80
2024/03/30 02:50:07;;;;;;;14.75;6.18;;;8.10;99.90;;;;;;5019699;28;20048;-80
2024/03/30 02:52:33;;;;;;;15.30;6.47;;;8.10;99.90;;;;;;5017656;28;20033;-80
2024/03/30 02:54:59;;;;;;;13.02;6.13;;;8.30;99.90;;;;;;5018529;28;20048;-80
2024/03/30 02:57:25;;;;;;;19.48;6.20;;;8.30;99.90;;;;;;5018240;28;20396;-80
2024/03/30 02:59:51;;;;;;;12.98;5.95;;;8.20;99.90;;;;;;5017207;28;20416;-79
2024/03/30 03:02:17;;;;;;;13.73;5.20;;;8.40;99.90;;;;;;5018059;28;20069;-80
2024/03/30 03:04:42;;;;;;;14.48;5.72;;;8.50;99.90;;;;;;5018431;28;20488;-81
2024/03/30 03:07:08;;;;;;;14.18;4.90;;;8.60;99.90;;;;;;5019111;28;20044;-80
2024/03/30 03:09:34;;;;;;;18.17;5.20;;;8.50;99.90;;;;;;5017769;28;20044;-80
2024/03/30 03:12:01;;;;;;;20.25;5.63;;;8.30;99.90;;;;;;5017356;28;20108;-80
2024/03/30 03:14:28;;;;;;;13.95;5.65;;;8.30;99.90;;;;;;5017389;28;20040;-80
2024/03/30 03:16:53;;;;;;;11.52;5.05;;;8.30;99.90;;;;;;5016504;28;20120;-80
2024/03/30 03:19:19;;;;;;;15.07;5.30;;;8.30;99.90;;;;;;5026786;28;20112;-80
2024/03/30 03:21:45;;;;;;;21.25;6.30;;;8.20;99.90;;;;;;5017269;28;20116;-80
2024/03/30 03:24:11;;;;;;;15.13;5.53;;;8.30;99.90;;;;;;5018542;28;20037;-80
2024/03/30 03:26:36;;;;;;;14.20;5.13;;;8.40;99.90;;;;;;5016960;28;20541;-80
2024/03/30 03:29:02;;;;;;;21.48;6.05;;;8.40;99.90;;;;;;5018245;28;20110;-80
2024/03/30 03:31:28;;;;;;;13.77;4.38;;;8.50;99.90;;;;;;5025600;28;20493;-80
2024/03/30 03:33:54;;;;;;;11.00;4.35;;;8.60;99.90;;;;;;5018669;28;20033;-80
2024/03/30 03:36:19;;;;;;;12.88;6.18;;;8.40;99.90;;;;;;5018438;28;20416;-80
2024/03/30 03:38:45;;;;;;;15.32;5.95;;;8.10;99.90;;;;;;5017297;28;20365;-80
2024/03/30 03:41:11;;;;;;;14.95;5.85;;;8.10;99.90;;;;;;5017115;28;20227;-80
2024/03/30 03:43:39;;;;;;;14.40;5.43;;;8.00;99.90;;;;;;5017652;28;20037;-80
2024/03/30 03:46:06;;;;;;;14.60;6.28;;;8.00;99.90;;;;;;5017556;28;20060;-80
2024/03/30 03:48:32;;;;;;;20.15;6.22;;;7.90;99.90;;;;;;5019269;28;20033;-80
2024/03/30 03:50:58;;;;;;;13.82;6.03;;;8.10;99.90;;;;;;5031117;28;20166;-80
2024/03/30 03:53:24;;;;;;;16.88;4.53;;;8.20;99.90;;;;;;5018478;28;20539;-80
2024/03/30 03:55:50;;;;;;;16.02;4.93;;;8.40;99.90;;;;;;5031310;28;20059;-80
2024/03/30 03:58:16;;;;;;;18.58;5.05;;;8.40;99.90;;;;;;5018008;28;20038;-80
2024/03/30 04:00:41;;;;;;;15.57;4.47;;;8.40;99.90;;;;;;5025487;28;20060;-80
2024/03/30 04:03:09;;;;;;;15.68;4.20;;;8.40;99.90;;;;;;5023717;28;20556;-80
2024/03/30 04:05:37;;;;;;;17.50;4.88;;;8.40;99.90;;;;;;5017173;28;20033;-80
2024/03/30 04:08:03;;;;;;;13.82;4.07;;;8.50;99.90;;;;;;5010391;28;20708;-80
2024/03/30 04:10:29;;;;;;;11.00;5.47;;;8.50;99.90;;;;;;5017486;28;20045;-80
2024/03/30 04:12:55;;;;;;;13.20;4.20;;;8.40;99.90;;;;;;5013606;28;20042;-79
2024/03/30 04:15:21;;;;;;;14.98;4.32;;;8.40;99.90;;;;;;5030499;28;20033;-80
2024/03/30 04:17:49;;;;;;;16.52;5.68;;;8.30;99.90;;;;;;5019327;28;20041;-80
2024/03/30 04:20:15;;;;;;;20.60;5.72;;;8.40;99.90;;;;;;5014034;28;20050;-80
2024/03/30 04:22:41;;;;;;;13.90;4.18;;;8.30;99.90;;;;;;5014221;28;20065;-80
2024/03/30 04:25:07;;;;;;;15.43;4.68;;;8.30;99.90;;;;;;5013122;28;20037;-80
2024/03/30 04:27:33;;;;;;;11.60;4.55;;;8.30;99.90;;;;;;5013974;28;20529;-80
2024/03/30 04:29:59;;;;;;;25.27;5.63;;;8.30;99.90;;;;;;5013541;28;20095;-80
2024/03/30 04:32:25;;;;;;;21.02;5.53;;;8.30;99.90;;;;;;5013931;28;20044;-80
2024/03/30 04:34:51;;;;;;;23.58;5.60;;;8.40;99.90;;;;;;5014572;28;20041;-80
2024/03/30 04:37:16;;;;;;;26.33;5.95;;;8.60;99.90;;;;;;5014890;28;20128;-80
2024/03/30 04:39:42;;;;;;;21.88;6.32;;;8.60;99.90;;;;;;5017010;28;20037;-80
2024/03/30 04:42:09;;;;;;;24.95;5.38;;;8.70;99.90;;;;;;5017371;28;20088;-80
2024/03/30 04:44:35;;;;;;;19.52;5.97;;;8.70;99.90;;;;;;5016457;28;20042;-80
2024/03/30 04:47:01;;;;;;;13.27;5.25;;;8.60;99.90;;;;;;5021036;28;20044;-80
2024/03/30 04:49:27;;;;;;;18.92;5.45;;;8.50;99.90;;;;;;5017865;28;20034;-80
2024/03/30 04:51:53;;;;;;;18.98;4.45;;;8.50;99.90;;;;;;5028899;28;20061;-80
2024/03/30 04:54:18;;;;;;;21.33;5.00;;;8.60;99.90;;;;;;5017328;28;20046;-80
2024/03/30 04:56:44;;;;;;;19.05;4.38;;;8.60;99.90;;;;;;5016121;28;20057;-80
2024/03/30 04:59:10;;;;;;;10.65;4.85;;;8.40;99.90;;;;;;5014880;28;20531;-80
2024/03/30 05:01:36;;;;;;;14.35;5.47;;;8.20;99.90;;;;;;5017167;28;20064;-80
2024/03/30 05:04:02;;;;;;;15.20;5.60;;;8.00;99.90;;;;;;5015930;28;20029;-80
2024/03/30 05:06:27;;;;;;;12.95;4.90;;;8.00;99.90;;;;;;5016421;28;20049;-80
2024/03/30 05:08:53;;;;;;;13.43;5.47;;;8.00;99.90;;;;;;5015845;28;20928;-81
2024/03/30 05:11:19;;;;;;;16.77;4.90;;;8.00;99.90;;;;;;5021997;28;20041;-80
2024/03/30 05:13:44;;;;;;;25.30;4.72;;;8.00;99.90;;;;;;5017037;28;20037;-80
2024/03/30 05:16:10;;;;;;;19.85;5.30;;;8.20;99.90;;;;;;5015061;28;20053;-80
2024/03/30 05:18:36;;;;;;;15.95;5.35;;;8.20;99.90;;;;;;5016397;28;20033;-80
2024/03/30 05:21:02;;;;;;;27.42;4.15;;;8.10;99.90;;;;;;5017110;28;20037;-80
2024/03/30 05:23:35;;;;;;;14.05;4.45;;;8.20;99.90;;;;;;5016970;28;20037;-80
2024/03/30 05:26:03;;;;;;;16.33;4.50;;;8.30;99.90;;;;;;5016313;28;20029;-80
2024/03/30 05:28:38;;;;;;;18.10;6.40;;;8.30;99.90;;;;;;5015339;28;20045;-79
2024/03/30 05:31:07;;;;;;;10.85;4.13;;;8.40;99.90;;;;;;5016229;28;20044;-82
2024/03/30 05:33:33;;;;;;;18.83;6.28;;;8.20;99.90;;;;;;5016589;28;20107;-81
2024/03/30 05:35:58;;;;;;;16.83;4.07;;;8.10;99.90;;;;;;5027579;28;21746;-80
2024/03/30 05:38:24;;;;;;;18.60;4.95;;;8.20;99.90;;;;;;5015609;28;20116;-80
2024/03/30 05:40:50;;;;;;;16.08;3.83;;;8.30;99.90;;;;;;5016555;28;20072;-80
2024/03/30 05:43:16;;;;;;;10.27;5.15;;;8.20;99.90;;;;;;5013870;28;20485;-81
2024/03/30 05:45:47;;;;;;;14.10;4.72;;;8.20;99.90;;;;;;5015535;28;20404;-82
2024/03/30 05:48:13;;;;;;;12.45;4.32;;;8.30;99.90;;;;;;5015033;28;20029;-81
2024/03/30 05:50:38;;;;;;;12.98;5.18;;;8.30;99.90;;;;;;5014167;28;20696;-83
2024/03/30 05:53:04;;;;;;;18.77;4.88;;;8.30;99.90;;;;;;5011293;28;20037;-81
2024/03/30 05:55:30;;;;;;;25.45;12.50;;;8.40;99.90;;;;;;5014883;28;20048;-81
2024/03/30 05:58:02;;;;;;;21.83;9.50;;;8.40;99.90;;;;;;5015848;28;20049;-81
2024/03/30 06:00:28;;;;;;;27.70;6.80;;;8.50;99.90;;;;;;5014920;28;20025;-81
2024/03/30 06:02:54;;;;;;;12.45;5.70;;;8.50;99.90;;;;;;5016252;28;20034;-81
2024/03/30 06:05:20;;;;;;;20.65;5.57;;;8.50;99.90;;;;;;5016195;28;20035;-81
2024/03/30 06:07:45;;;;;;;14.40;6.75;;;8.40;99.90;;;;;;5024404;28;20480;-81
2024/03/30 06:10:11;;;;;;;15.52;4.97;;;8.50;99.90;;;;;;5016618;28;20422;-81
2024/03/30 06:12:38;;;;;;;15.60;5.72;;;8.50;99.90;;;;;;5015113;28;20639;-81
2024/03/30 06:15:06;;;;;;;13.85;5.28;;;8.40;99.90;;;;;;5014950;28;20675;-81
2024/03/30 06:17:36;;;;;;;17.30;5.22;;;8.50;99.90;;;;;;5015120;28;20041;-81
2024/03/30 06:20:05;;;;;;;14.35;5.25;;;8.60;99.90;;;;;;5015406;28;20065;-81
2024/03/30 06:22:32;;;;;;;15.20;4.88;;;8.60;99.90;;;;;;5012479;28;20633;-81
2024/03/30 06:24:57;;;;;;;18.02;5.13;;;8.60;99.90;;;;;;5015189;28;20029;-81
2024/03/30 06:27:23;;;;;;;19.98;4.93;;;8.60;99.90;;;;;;5015336;28;20041;-81
2024/03/30 06:29:49;;;;;;;13.25;4.25;;;8.50;99.90;;;;;;5016229;28;20702;-80
2024/03/30 06:32:14;;;;;;;16.55;4.32;;;8.60;99.90;;;;;;5014250;28;20445;-81
2024/03/30 06:34:40;;;;;;;18.27;4.70;;;8.70;99.90;;;;;;5016311;28;20120;-81
2024/03/30 06:37:05;;;;;;;15.55;5.38;;;8.70;99.90;;;;;;5016146;28;20377;-79
2024/03/30 06:45:00;;;;;;;27.50;5.47;;;9.00;99.90;;;;;;5014660;28;20283;-79
2024/03/30 06:47:26;;;;;;;17.85;5.22;;;8.80;99.90;;;;;;5018908;28;20750;-77
2024/03/30 06:49:51;;;;;;;13.32;4.57;;;8.80;99.90;;;;;;5027398;28;20044;-79
2024/03/30 06:52:17;;;;;;;14.32;5.20;;;8.90;99.90;;;;;;5014421;28;20029;-79
2024/03/30 06:54:43;;;;;;;14.98;5.22;;;9.00;99.90;;;;;;5012851;28;20028;-78
2024/03/30 06:57:08;;;;;;;20.95;5.15;;;9.00;99.90;;;;;;5019236;28;20052;-78
2024/03/30 06:59:34;;;;;;;14.80;5.00;;;9.10;99.90;;;;;;5010645;28;20033;-79
2024/03/30 07:02:00;;;;;;;13.32;4.60;;;9.10;99.90;;;;;;5006785;28;20068;-79
2024/03/30 07:04:26;;;;;;;14.02;5.43;;;9.20;99.90;;;;;;5024231;28;20472;-79
2024/03/30 07:06:51;;;;;;;17.42;5.03;;;9.30;99.90;;;;;;5009136;28;20033;-79
2024/03/30 07:09:17;;;;;;;14.68;4.50;;;9.30;99.90;;;;;;5014199;28;20036;-81
2024/03/30 07:11:43;;;;;;;20.25;4.95;;;9.40;99.90;;;;;;5012479;28;20048;-81
2024/03/30 07:14:08;;;;;;;20.60;5.00;;;9.40;99.90;;;;;;5013232;28;20079;-81
2024/03/30 07:16:34;;;;;;;16.90;4.38;;;9.40;99.90;;;;;;5014302;28;20033;-78
2024/03/30 07:18:59;;;;;;;19.50;3.92;;;9.60;99.90;;;;;;5012796;28;20064;-81
2024/03/30 07:21:25;;;;;;;20.35;4.65;;;9.70;99.90;;;;;;5014031;28;20037;-79
2024/03/30 07:23:51;;;;;;;27.77;4.78;;;9.80;99.90;;;;;;5014749;28;20030;-79
2024/03/30 07:26:16;;;;;;;17.70;4.95;;;9.80;99.90;;;;;;5011622;28;20063;-79
2024/03/30 07:28:43;;;;;;;13.70;4.70;;;9.90;99.90;;;;;;5012772;28;20126;-79
2024/03/30 07:31:10;;;;;;;29.38;13.35;;;9.90;99.90;;;;;;5016486;28;20483;-78
2024/03/30 07:33:35;;;;;;;25.88;10.30;;;9.90;99.90;;;;;;5029800;28;20036;-78
2024/03/30 07:36:01;;;;;;;32.28;14.63;;;9.80;99.90;;;;;;5014348;28;20033;-80
2024/03/30 07:38:39;;;;;;;31.30;14.07;;;9.70;99.90;;;;;;5018219;28;20049;-79
2024/03/30 07:41:04;;;;;;;27.67;11.68;;;9.70;99.90;;;;;;5016654;28;20021;-77
2024/03/30 07:43:30;;;;;;;36.17;18.33;;;9.70;99.90;;;;;;5024118;28;20482;-81
2024/03/30 07:46:00;;;;;;;22.52;12.93;;;9.70;99.90;;;;;;5015869;28;22095;-78
2024/03/30 07:48:26;;;;;;;23.48;10.63;;;9.70;99.90;;;;;;5010645;28;20485;-77
2024/03/30 07:50:51;;;;;;;22.10;9.02;;;9.80;99.90;;;;;;5011464;28;20064;-78
2024/03/30 07:53:17;;;;;;;19.13;7.95;;;9.90;99.90;;;;;;5016011;28;20033;-78
2024/03/30 07:55:43;;;;;;;18.00;7.20;;;10.00;99.90;;;;;;5012394;28;20037;-79
2024/03/30 07:58:08;;;;;;;23.35;7.03;;;10.20;99.90;;;;;;5012362;28;20045;-79
2024/03/30 08:00:34;;;;;;;22.75;6.97;;;10.40;99.90;;;;;;5015528;28;20039;-78
2024/03/30 08:03:01;;;;;;;16.48;6.47;;;10.30;99.90;;;;;;5011917;28;20655;-79
2024/03/30 08:05:28;;;;;;;17.00;6.82;;;10.30;99.90;;;;;;5010211;28;20037;-80
2024/03/30 08:07:53;;;;;;;14.98;6.93;;;10.20;99.90;;;;;;5010972;28;20037;-80
2024/03/30 08:10:19;;;;;;;17.70;6.45;;;10.30;99.90;;;;;;5008981;28;20079;-80
2024/03/30 08:12:45;;;;;;;19.00;6.55;;;10.30;99.90;;;;;;5009900;28;20523;-80
2024/03/30 08:15:11;;;;;;;20.83;6.72;;;10.30;99.90;;;;;;5025073;28;20445;-80
2024/03/30 08:17:37;;;;;;;15.43;6.65;;;10.40;99.90;;;;;;5018685;28;20053;-80
2024/03/30 08:20:04;;;;;;;16.58;7.10;;;10.30;99.90;;;;;;5015699;28;20034;-80
2024/03/30 08:22:30;;;;;;;16.38;7.60;;;10.30;99.90;;;;;;5014823;28;20037;-80
2024/03/30 08:24:56;;;;;;;18.23;5.45;;;10.40;99.90;;;;;;5017339;28;20045;-80
2024/03/30 08:27:22;;;;;;;22.52;6.97;;;10.50;99.90;;;;;;5014754;28;20037;-79
2024/03/30 08:29:47;;;;;;;14.45;5.40;;;10.50;99.90;;;;;;5015221;28;20659;-80
2024/03/30 08:32:13;;;;;;;21.65;6.60;;;10.80;99.90;;;;;;5020087;28;20709;-79
2024/03/30 08:34:39;;;;;;;16.35;6.50;;;10.90;99.90;;;;;;5018430;28;20060;-80
2024/03/30 08:37:04;;;;;;;11.43;6.45;;;10.70;99.90;;;;;;5012606;28;20039;-80
2024/03/30 08:39:30;;;;;;;15.75;6.22;;;10.80;99.90;;;;;;5013273;28;20568;-80
2024/03/30 08:41:56;;;;;;;15.02;6.55;;;10.80;99.90;;;;;;5014698;28;20388;-80
2024/03/30 08:44:22;;;;;;;14.88;6.30;;;10.90;99.90;;;;;;5015052;28;20040;-80
2024/03/30 08:46:47;;;;;;;19.20;6.70;;;10.80;99.90;;;;;;5014975;28;20830;-80
2024/03/30 08:49:13;;;;;;;15.73;6.22;;;11.00;99.90;;;;;;5014898;28;20124;-77
2024/03/30 08:51:39;;;;;;;14.95;7.05;;;10.90;99.90;;;;;;5017039;28;20025;-80
2024/03/30 08:54:08;;;;;;;17.05;6.07;;;10.90;99.90;;;;;;5014405;28;20057;-81
2024/03/30 08:56:36;;;;;;;16.98;6.15;;;11.10;99.90;;;;;;5014849;28;20042;-80
2024/03/30 08:59:02;;;;;;;18.10;6.10;;;11.10;99.90;;;;;;5014458;28;20043;-81
2024/03/30 09:01:32;;;;;;;15.18;6.55;;;11.30;99.90;;;;;;5014048;28;20056;-80
2024/03/30 09:03:57;;;;;;;20.65;7.03;;;11.40;99.90;;;;;;5013819;28;20044;-80
2024/03/30 09:06:23;;;;;;;19.42;5.70;;;11.40;99.90;;;;;;5013755;28;20041;-80
2024/03/30 09:08:49;;;;;;;14.38;5.05;;;11.50;99.90;;;;;;5014899;28;20586;-80
2024/03/30 09:11:15;;;;;;;16.10;6.38;;;11.70;99.90;;;;;;5013886;28;20039;-81
2024/03/30 09:13:40;;;;;;;15.00;6.18;;;11.90;99.90;;;;;;5016253;28;20045;-80
2024/03/30 09:16:06;;;;;;;19.27;5.95;;;11.90;99.90;;;;;;5014225;28;20127;-80
2024/03/30 09:18:33;;;;;;;12.10;5.72;;;11.90;99.90;;;;;;5012747;28;20022;-80
2024/03/30 09:20:59;;;;;;;16.23;6.05;;;11.90;99.90;;;;;;5013352;28;21059;-81
2024/03/30 09:23:25;;;;;;;23.60;5.75;;;11.90;99.90;;;;;;5011956;28;20033;-80
2024/03/30 09:25:51;;;;;;;14.20;6.75;;;12.10;99.90;;;;;;5013441;28;21270;-80
2024/03/30 09:28:17;;;;;;;19.05;5.60;;;12.10;99.90;;;;;;5014212;28;20147;-78
2024/03/30 09:30:43;;;;;;;32.05;7.10;;;12.10;99.90;;;;;;5016486;28;20049;-78
2024/03/30 09:33:09;;;;;;;17.38;6.03;;;12.00;99.90;;;;;;5000127;28;20058;-78
2024/03/30 09:35:37;;;;;;;19.48;5.80;;;11.70;99.90;;;;;;4996146;28;20499;-78
2024/03/30 09:38:03;;;;;;;16.05;4.97;;;11.70;99.90;;;;;;4995032;28;20062;-78
2024/03/30 09:40:29;;;;;;;21.60;6.90;;;11.70;99.90;;;;;;4996174;28;20041;-79
2024/03/30 09:42:55;;;;;;;16.35;4.82;;;11.60;99.90;;;;;;4995509;28;20069;-78
2024/03/30 09:45:25;;;;;;;18.38;5.68;;;11.60;99.90;;;;;;4996031;28;20153;-78
2024/03/30 09:47:52;;;;;;;23.75;6.43;;;11.60;99.90;;;;;;4995263;28;20092;-77
2024/03/30 09:50:21;;;;;;;23.15;6.30;;;11.50;99.90;;;;;;4995127;28;20451;-77
2024/03/30 09:52:48;;;;;;;15.88;5.97;;;11.60;99.90;;;;;;4994140;28;20492;-78
2024/03/30 09:55:18;;;;;;;25.73;6.20;;;11.50;99.90;;;;;;4994586;28;20067;-78
2024/03/30 09:57:52;;;;;;;21.67;6.28;;;11.50;99.90;;;;;;4994877;28;20484;-79
2024/03/30 10:00:19;;;;;;;24.30;6.45;;;11.40;99.90;;;;;;4995208;28;20188;-78
2024/03/30 10:02:45;;;;;;;21.08;6.43;;;11.30;99.90;;;;;;4994948;28;20034;-78
2024/03/30 10:05:12;;;;;;;13.60;5.32;;;11.50;99.90;;;;;;4995394;28;20022;-78
2024/03/30 10:07:41;;;;;;;17.58;5.95;;;11.40;99.90;;;;;;4993838;28;20381;-78
2024/03/30 10:10:17;;;;;;;26.17;4.97;;;11.40;99.90;;;;;;4994861;28;20034;-78
2024/03/30 10:12:43;;;;;;;18.80;5.95;;;11.60;99.90;;;;;;4995842;28;20411;-77
2024/03/30 10:15:15;;;;;;;22.42;6.05;;;11.70;99.90;;;;;;4995171;28;20045;-77
2024/03/30 10:17:41;;;;;;;26.30;5.70;;;11.80;99.90;;;;;;4994998;28;20111;-77
2024/03/30 10:20:07;;;;;;;20.17;5.50;;;11.70;99.90;;;;;;4994269;28;21266;-77
2024/03/30 10:22:34;;;;;;;15.93;6.28;;;11.80;99.90;;;;;;4994950;28;20172;-77
2024/03/30 10:25:02;;;;;;;21.73;6.57;;;11.80;99.90;;;;;;4995250;28;20030;-77
2024/03/30 10:27:27;;;;;;;16.38;6.20;;;11.70;99.90;;;;;;4994817;28;20076;-80
2024/03/30 10:29:53;;;;;;;19.42;6.38;;;11.70;99.90;;;;;;4994705;28;20120;-79
2024/03/30 10:32:19;;;;;;;14.77;4.85;;;11.70;99.90;;;;;;4995340;28;20029;-79
2024/03/30 10:34:45;;;;;;;17.02;5.78;;;11.70;99.90;;;;;;4994131;28;20631;-79
2024/03/30 10:37:11;;;;;;;16.10;5.05;;;11.70;99.90;;;;;;4994106;28;20048;-80
2024/03/30 10:39:36;;;;;;;24.27;5.32;;;11.90;99.90;;;;;;4994455;28;20686;-77
2024/03/30 10:42:02;;;;;;;17.98;4.93;;;12.00;99.90;;;;;;4994644;28;20034;-80
2024/03/30 10:44:28;;;;;;;25.58;4.80;;;12.20;99.90;;;;;;4994553;28;20036;-79
2024/03/30 10:46:56;;;;;;;28.48;5.68;;;12.20;99.90;;;;;;4994682;28;20041;-79
2024/03/30 10:49:25;;;;;;;21.98;6.05;;;12.10;99.90;;;;;;4994446;28;20095;-77
2024/03/30 10:51:52;;;;;;;24.05;6.55;;;12.20;99.90;;;;;;4994697;28;20025;-80
2024/03/30 10:54:22;;;;;;;23.23;5.00;;;12.20;99.90;;;;;;4994671;28;20570;-79
2024/03/30 10:56:51;;;;;;;22.33;6.13;;;12.30;99.90;;;;;;4993645;28;20656;-78
2024/03/30 10:59:20;;;;;;;21.35;6.30;;;12.00;99.90;;;;;;4993735;28;20052;-78
2024/03/30 11:01:48;;;;;;;27.98;7.78;;;12.20;99.90;;;;;;4994927;28;20431;-77
2024/03/30 11:04:16;;;;;;;23.85;6.78;;;12.20;99.90;;;;;;4993953;28;20029;-79
2024/03/30 11:06:46;;;;;;;25.25;5.63;;;12.30;99.90;;;;;;4993698;28;20124;-79
2024/03/30 11:09:20;;;;;;;18.30;4.63;;;12.30;99.90;;;;;;4992022;28;21760;-79
2024/03/30 11:11:49;;;;;;;15.38;4.82;;;12.40;99.90;;;;;;4995205;28;20084;-77
2024/03/30 11:14:14;;;;;;;17.98;4.75;;;12.30;99.90;;;;;;4996729;28;20034;-77
2024/03/30 11:16:47;;;;;;;17.88;5.95;;;12.30;99.90;;;;;;4996803;28;20037;-77
2024/03/30 11:19:42;;;;;;;12.35;4.20;;;12.20;99.90;;;;;;4997309;28;20533;-76
2024/03/30 11:22:35;;;;;;;23.35;5.68;;;12.30;99.90;;;;;;4992747;28;20132;-77
2024/03/30 11:25:09;;;;;;;30.52;6.38;;;12.30;99.90;;;;;;4996851;28;20597;-78
2024/03/30 11:27:41;;;;;;;32.17;6.07;;;12.50;99.90;;;;;;4996712;28;21352;-77
2024/03/30 11:30:31;;;;;;;23.67;5.97;;;12.70;99.90;;;;;;4993485;28;20508;-76
2024/03/30 11:33:08;;;;;;;25.08;5.72;;;13.00;99.90;;;;;;4993873;28;20029;-77
2024/03/30 11:35:40;;;;;;;24.13;6.57;;;13.00;99.90;;;;;;4993343;28;21098;-77
2024/03/30 11:38:07;;;;;;;23.80;7.32;;;13.00;99.90;;;;;;4992826;28;20053;-81
2024/03/30 11:40:37;;;;;;;28.90;6.05;;;12.90;99.90;;;;;;4994244;28;20111;-80
2024/03/30 11:43:06;;;;;;;19.20;5.88;;;12.80;99.90;;;;;;4994338;28;20053;-79
2024/03/30 11:45:35;;;;;;;28.98;6.70;;;12.90;99.90;;;;;;4993836;28;20488;-80
2024/03/30 11:48:01;;;;;;;32.92;9.93;;;12.80;99.90;;;;;;4996992;28;20084;-78
2024/03/30 11:50:27;;;;;;;37.13;8.85;;;12.70;99.90;;;;;;4997051;28;20484;-78
2024/03/30 11:52:53;;;;;;;18.17;6.85;;;12.80;99.90;;;;;;4998133;28;20045;-79
2024/03/30 11:55:31;;;;;;;21.60;5.70;;;12.70;99.90;;;;;;4998121;28;20451;-79
2024/03/30 11:57:59;;;;;;;24.95;5.85;;;12.70;99.90;;;;;;4997131;28;20046;-78
2024/03/30 12:00:31;;;;;;;38.88;8.05;;;12.80;99.90;;;;;;4996820;28;20465;-79
2024/03/30 12:03:02;;;;;;;17.50;5.57;;;12.90;99.90;;;;;;4996582;28;20299;-79
2024/03/30 12:05:29;;;;;;;29.50;6.50;;;12.80;99.90;;;;;;4997486;28;20034;-79
2024/03/30 12:07:59;;;;;;;33.88;6.45;;;12.70;99.90;;;;;;4997542;28;20044;-79
2024/03/30 12:10:26;;;;;;;31.98;8.27;;;12.70;99.90;;;;;;4998042;28;20041;-79
2024/03/30 12:12:59;;;;;;;21.95;6.25;;;12.90;99.90;;;;;;4997641;28;20439;-79
2024/03/30 12:15:29;;;;;;;21.98;5.85;;;12.90;99.90;;;;;;4997849;28;20548;-80
2024/03/30 12:17:55;;;;;;;26.08;5.95;;;13.10;99.90;;;;;;4997555;28;20076;-79
2024/03/30 12:20:22;;;;;;;24.88;5.85;;;13.30;99.90;;;;;;5000022;28;20091;-80
2024/03/30 12:22:48;;;;;;;21.90;5.47;;;13.50;99.90;;;;;;4999437;28;20041;-79
2024/03/30 12:25:15;;;;;;;23.95;6.05;;;13.60;99.90;;;;;;5000439;28;20034;-79
2024/03/30 12:27:44;;;;;;;30.23;6.82;;;13.70;99.90;;;;;;5000357;28;20107;-79
2024/03/30 12:30:11;;;;;;;53.85;9.00;;;13.80;99.90;;;;;;5000040;28;20033;-78
2024/03/30 12:32:37;;;;;;;43.33;10.70;;;14.20;99.90;;;;;;4999422;28;20100;-79
2024/03/30 12:35:02;;;;;;;33.13;7.57;;;14.50;99.90;;;;;;5000101;28;20026;-79
2024/03/30 12:37:28;;;;;;;44.60;7.13;;;14.70;99.90;;;;;;5000216;28;20038;-78
2024/03/30 12:39:54;;;;;;;42.80;7.68;;;14.80;99.90;;;;;;4999338;28;20044;-79
2024/03/30 12:42:21;;;;;;;44.50;8.48;;;14.90;99.90;;;;;;5000261;28;20061;-80
2024/03/30 12:44:52;;;;;;;44.05;9.10;;;15.10;99.90;;;;;;5000098;28;20189;-79
2024/03/30 12:47:18;;;;;;;21.00;6.18;;;15.10;99.90;;;;;;5000051;28;20041;-79